sensor_id;sensor_type;location;lat;lon;timestamp;pressure;altitude;pressure_sealevel;temperature;humidity
71344;BME280;59146;43.850;25.948;2023-01-25T00:01:48;102932.00;;;1.42;75.78
71344;BME280;59146;43.850;25.948;2023-01-25T00:04:13;102946.78;;;1.55;75.94
71344;BME280;59146;43.850;25.948;2023-01-25T00:06:39;102893.94;;;1.24;75.29
71344;BME280;59146;43.850;25.948;2023-01-25T00:09:04;102783.91;;;0.54;75.71
71344;BME280;59146;43.850;25.948;2023-01-25T00:11:29;102761.53;;;0.50;75.40
71344;BME280;59146;43.850;25.948;2023-01-25T00:13:55;102878.31;;;1.12;75.41
71344;BME280;59146;43.850;25.948;2023-01-25T00:16:21;102958.16;;;1.68;75.40
71344;BME280;59146;43.850;25.948;2023-01-25T00:18:47;102934.75;;;1.54;74.85
71344;BME280;59146;43.850;25.948;2023-01-25T00:21:18;102834.13;;;0.84;75.56
71344;BME280;59146;43.850;25.948;2023-01-25T00:23:43;102940.03;;;1.63;75.45
71344;BME280;59146;43.850;25.948;2023-01-25T00:26:09;102937.41;;;1.61;75.50
71344;BME280;59146;43.850;25.948;2023-01-25T00:28:34;102939.09;;;1.59;75.67
71344;BME280;59146;43.850;25.948;2023-01-25T00:31:01;102886.38;;;1.33;75.51
71344;BME280;59146;43.850;25.948;2023-01-25T00:33:42;102954.13;;;1.89;74.79
71344;BME280;59146;43.850;25.948;2023-01-25T00:36:32;102959.97;;;1.76;75.12
71344;BME280;59146;43.850;25.948;2023-01-25T00:39:01;102916.06;;;1.70;75.05
71344;BME280;59146;43.850;25.948;2023-01-25T00:41:27;102950.69;;;1.87;74.78
71344;BME280;59146;43.850;25.948;2023-01-25T00:43:52;102949.94;;;1.94;74.27
71344;BME280;59146;43.850;25.948;2023-01-25T00:46:18;102897.72;;;1.46;75.38
71344;BME280;59146;43.850;25.948;2023-01-25T00:48:44;102843.22;;;1.19;75.46
71344;BME280;59146;43.850;25.948;2023-01-25T00:51:10;102898.75;;;1.60;75.49
71344;BME280;59146;43.850;25.948;2023-01-25T00:53:36;102960.38;;;2.05;74.97
71344;BME280;59146;43.850;25.948;2023-01-25T00:56:01;102884.19;;;1.63;74.88
71344;BME280;59146;43.850;25.948;2023-01-25T00:58:27;102920.38;;;1.70;75.26
71344;BME280;59146;43.850;25.948;2023-01-25T01:00:53;102925.41;;;1.60;76.14
71344;BME280;59146;43.850;25.948;2023-01-25T01:03:19;102896.53;;;1.26;77.11
71344;BME280;59146;43.850;25.948;2023-01-25T01:05:44;102924.19;;;1.39;77.35
71344;BME280;59146;43.850;25.948;2023-01-25T01:08:11;102826.31;;;0.80;77.51
71344;BME280;59146;43.850;25.948;2023-01-25T01:10:37;102931.94;;;1.40;77.58
71344;BME280;59146;43.850;25.948;2023-01-25T01:13:02;102934.56;;;1.42;77.91
71344;BME280;59146;43.850;25.948;2023-01-25T01:15:27;102896.97;;;1.01;77.33
71344;BME280;59146;43.850;25.948;2023-01-25T01:17:53;102878.78;;;0.89;78.33
71344;BME280;59146;43.850;25.948;2023-01-25T01:20:18;102871.03;;;0.86;78.86
71344;BME280;59146;43.850;25.948;2023-01-25T01:22:44;102859.47;;;0.62;79.53
71344;BME280;59146;43.850;25.948;2023-01-25T01:25:09;102856.94;;;0.65;79.41
71344;BME280;59146;43.850;25.948;2023-01-25T01:27:35;102950.28;;;1.05;79.93
71344;BME280;59146;43.850;25.948;2023-01-25T01:30:00;102915.69;;;0.91;79.82
71344;BME280;59146;43.850;25.948;2023-01-25T01:32:26;102890.56;;;0.74;80.05
71344;BME280;59146;43.850;25.948;2023-01-25T01:34:51;102849.63;;;0.40;81.14
71344;BME280;59146;43.850;25.948;2023-01-25T01:37:16;102873.81;;;0.50;81.29
71344;BME280;59146;43.850;25.948;2023-01-25T01:39:42;102865.91;;;0.39;80.96
71344;BME280;59146;43.850;25.948;2023-01-25T01:42:07;102883.25;;;0.51;81.80
71344;BME280;59146;43.850;25.948;2023-01-25T01:44:49;102947.47;;;0.93;82.20
71344;BME280;59146;43.850;25.948;2023-01-25T01:47:28;102938.75;;;0.85;82.37
71344;BME280;59146;43.850;25.948;2023-01-25T01:50:01;102874.91;;;0.62;82.30
71344;BME280;59146;43.850;25.948;2023-01-25T01:52:30;102926.84;;;0.91;81.75
71344;BME280;59146;43.850;25.948;2023-01-25T01:55:01;102930.34;;;0.95;81.90
71344;BME280;59146;43.850;25.948;2023-01-25T01:57:34;102938.81;;;0.88;81.73
71344;BME280;59146;43.850;25.948;2023-01-25T02:00:13;102852.16;;;0.37;81.53
71344;BME280;59146;43.850;25.948;2023-01-25T02:02:40;102861.59;;;0.38;82.02
71344;BME280;59146;43.850;25.948;2023-01-25T02:05:10;102921.41;;;0.74;81.61
71344;BME280;59146;43.850;25.948;2023-01-25T02:07:39;102866.84;;;0.44;81.73
71344;BME280;59146;43.850;25.948;2023-01-25T02:10:07;102853.94;;;0.41;81.90
71344;BME280;59146;43.850;25.948;2023-01-25T02:12:34;102882.16;;;0.38;81.77
71344;BME280;59146;43.850;25.948;2023-01-25T02:15:01;102898.06;;;0.62;82.48
71344;BME280;59146;43.850;25.948;2023-01-25T02:17:37;102914.69;;;0.82;82.60
71344;BME280;59146;43.850;25.948;2023-01-25T02:25:37;102838.72;;;0.53;80.61
71344;BME280;59146;43.850;25.948;2023-01-25T02:28:08;102863.06;;;0.72;80.10
71344;BME280;59146;43.850;25.948;2023-01-25T02:30:35;102866.50;;;0.72;79.28
71344;BME280;59146;43.850;25.948;2023-01-25T02:33:00;102860.50;;;0.72;78.30
71344;BME280;59146;43.850;25.948;2023-01-25T02:35:45;102910.09;;;1.16;77.33
71344;BME280;59146;43.850;25.948;2023-01-25T02:38:13;102847.59;;;0.70;77.25
71344;BME280;59146;43.850;25.948;2023-01-25T02:40:54;102848.66;;;0.82;76.13
71344;BME280;59146;43.850;25.948;2023-01-25T02:43:22;102886.81;;;1.07;74.55
71344;BME280;59146;43.850;25.948;2023-01-25T02:45:58;102889.59;;;1.22;74.83
71344;BME280;59146;43.850;25.948;2023-01-25T02:48:24;102867.94;;;1.06;75.61
71344;BME280;59146;43.850;25.948;2023-01-25T02:50:50;102852.41;;;1.03;74.72
71344;BME280;59146;43.850;25.948;2023-01-25T02:53:15;102907.03;;;1.38;74.04
71344;BME280;59146;43.850;25.948;2023-01-25T02:55:41;102732.88;;;0.28;74.73
71344;BME280;59146;43.850;25.948;2023-01-25T02:58:06;102856.66;;;1.00;75.00
71344;BME280;59146;43.850;25.948;2023-01-25T03:00:31;102834.03;;;0.80;74.65
71344;BME280;59146;43.850;25.948;2023-01-25T03:02:57;102879.91;;;1.06;74.69
71344;BME280;59146;43.850;25.948;2023-01-25T03:05:23;102891.09;;;1.06;74.69
71344;BME280;59146;43.850;25.948;2023-01-25T03:07:49;102821.59;;;0.52;74.26
71344;BME280;59146;43.850;25.948;2023-01-25T03:10:14;102922.44;;;1.35;74.31
71344;BME280;59146;43.850;25.948;2023-01-25T03:12:39;102853.56;;;1.22;74.04
71344;BME280;59146;43.850;25.948;2023-01-25T03:15:05;102859.75;;;1.33;73.74
71344;BME280;59146;43.850;25.948;2023-01-25T03:17:31;102895.66;;;1.85;72.02
71344;BME280;59146;43.850;25.948;2023-01-25T03:19:56;102888.53;;;1.66;72.25
71344;BME280;59146;43.850;25.948;2023-01-25T03:22:22;102839.81;;;1.20;72.32
71344;BME280;59146;43.850;25.948;2023-01-25T03:24:48;102913.31;;;1.56;72.30
71344;BME280;59146;43.850;25.948;2023-01-25T03:27:13;102821.59;;;1.06;71.97
71344;BME280;59146;43.850;25.948;2023-01-25T03:29:41;102881.00;;;1.20;72.00
71344;BME280;59146;43.850;25.948;2023-01-25T03:32:06;102764.78;;;0.40;72.78
71344;BME280;59146;43.850;25.948;2023-01-25T03:34:32;102883.19;;;0.94;72.77
71344;BME280;59146;43.850;25.948;2023-01-25T03:36:57;102878.88;;;0.95;72.55
71344;BME280;59146;43.850;25.948;2023-01-25T03:39:23;102869.50;;;0.98;72.42
71344;BME280;59146;43.850;25.948;2023-01-25T03:41:48;102906.53;;;1.08;72.71
71344;BME280;59146;43.850;25.948;2023-01-25T03:44:13;102896.88;;;0.95;72.74
71344;BME280;59146;43.850;25.948;2023-01-25T03:46:40;102900.59;;;1.10;72.30
71344;BME280;59146;43.850;25.948;2023-01-25T03:49:05;102878.84;;;0.93;71.55
71344;BME280;59146;43.850;25.948;2023-01-25T03:51:31;102893.41;;;0.91;71.13
71344;BME280;59146;43.850;25.948;2023-01-25T03:53:56;102871.91;;;0.88;72.58
71344;BME280;59146;43.850;25.948;2023-01-25T03:56:22;102865.09;;;0.90;70.80
71344;BME280;59146;43.850;25.948;2023-01-25T03:58:48;102877.06;;;0.88;71.14
71344;BME280;59146;43.850;25.948;2023-01-25T04:01:13;102878.84;;;0.92;70.11
71344;BME280;59146;43.850;25.948;2023-01-25T04:03:39;102839.16;;;0.77;70.82
71344;BME280;59146;43.850;25.948;2023-01-25T04:06:05;102900.22;;;0.88;75.44
71344;BME280;59146;43.850;25.948;2023-01-25T04:08:31;102851.06;;;0.72;77.34
71344;BME280;59146;43.850;25.948;2023-01-25T04:11:02;102896.06;;;0.97;78.18
71344;BME280;59146;43.850;25.948;2023-01-25T04:13:27;102898.47;;;0.88;79.77
71344;BME280;59146;43.850;25.948;2023-01-25T04:15:53;102850.91;;;0.63;81.03
71344;BME280;59146;43.850;25.948;2023-01-25T04:18:19;102872.63;;;0.80;81.06
71344;BME280;59146;43.850;25.948;2023-01-25T04:20:45;102867.56;;;0.85;80.88
71344;BME280;59146;43.850;25.948;2023-01-25T04:23:11;102807.81;;;0.50;80.68
71344;BME280;59146;43.850;25.948;2023-01-25T04:25:37;102904.94;;;1.13;80.33
71344;BME280;59146;43.850;25.948;2023-01-25T04:28:03;102878.84;;;0.92;80.39
71344;BME280;59146;43.850;25.948;2023-01-25T04:30:29;102888.81;;;0.73;81.04
71344;BME280;59146;43.850;25.948;2023-01-25T04:32:55;102856.16;;;0.69;80.95
71344;BME280;59146;43.850;25.948;2023-01-25T04:35:20;102819.84;;;0.53;80.94
71344;BME280;59146;43.850;25.948;2023-01-25T04:37:56;102908.84;;;0.91;81.18
71344;BME280;59146;43.850;25.948;2023-01-25T04:40:21;102853.44;;;0.60;82.03
71344;BME280;59146;43.850;25.948;2023-01-25T04:42:47;102853.47;;;0.62;82.32
71344;BME280;59146;43.850;25.948;2023-01-25T04:45:12;102926.31;;;1.09;82.75
71344;BME280;59146;43.850;25.948;2023-01-25T04:47:38;102903.00;;;1.00;82.89
71344;BME280;59146;43.850;25.948;2023-01-25T04:50:03;102925.44;;;1.10;82.32
71344;BME280;59146;43.850;25.948;2023-01-25T04:52:29;102926.25;;;1.07;82.08
71344;BME280;59146;43.850;25.948;2023-01-25T04:54:54;102887.13;;;0.75;82.29
71344;BME280;59146;43.850;25.948;2023-01-25T04:57:20;102870.50;;;0.57;82.74
71344;BME280;59146;43.850;25.948;2023-01-25T04:59:45;102914.94;;;0.96;82.08
71344;BME280;59146;43.850;25.948;2023-01-25T05:02:11;102883.75;;;0.78;81.35
71344;BME280;59146;43.850;25.948;2023-01-25T05:04:36;102916.53;;;0.90;79.02
71344;BME280;59146;43.850;25.948;2023-01-25T05:07:01;102875.91;;;0.70;78.93
71344;BME280;59146;43.850;25.948;2023-01-25T05:09:27;102851.72;;;0.61;79.70
71344;BME280;59146;43.850;25.948;2023-01-25T05:11:52;102851.06;;;0.72;80.50
71344;BME280;59146;43.850;25.948;2023-01-25T05:14:18;102887.34;;;0.88;80.80
71344;BME280;59146;43.850;25.948;2023-01-25T05:16:43;102824.91;;;0.48;81.51
71344;BME280;59146;43.850;25.948;2023-01-25T05:19:09;102868.44;;;0.86;79.07
71344;BME280;59146;43.850;25.948;2023-01-25T05:21:34;102868.47;;;0.89;78.80
71344;BME280;59146;43.850;25.948;2023-01-25T05:24:18;102887.38;;;0.91;78.93
71344;BME280;59146;43.850;25.948;2023-01-25T05:26:44;102912.50;;;1.04;79.16
71344;BME280;59146;43.850;25.948;2023-01-25T05:29:38;102879.81;;;0.98;78.04
71344;BME280;59146;43.850;25.948;2023-01-25T05:34:31;102725.19;;;-0.19;79.17
71344;BME280;59146;43.850;25.948;2023-01-25T05:36:56;102904.50;;;0.89;78.77
71344;BME280;59146;43.850;25.948;2023-01-25T05:39:22;102891.53;;;0.82;78.56
71344;BME280;59146;43.850;25.948;2023-01-25T05:41:48;102896.94;;;0.98;78.43
71344;BME280;59146;43.850;25.948;2023-01-25T05:44:14;102888.50;;;1.06;77.13
71344;BME280;59146;43.850;25.948;2023-01-25T05:46:39;102928.00;;;1.07;78.55
71344;BME280;59146;43.850;25.948;2023-01-25T05:49:05;102889.97;;;0.91;78.16
71344;BME280;59146;43.850;25.948;2023-01-25T05:51:30;102888.44;;;1.02;77.87
71344;BME280;59146;43.850;25.948;2023-01-25T05:53:56;102866.06;;;0.96;77.87
71344;BME280;59146;43.850;25.948;2023-01-25T05:56:22;102903.25;;;1.15;77.01
71344;BME280;59146;43.850;25.948;2023-01-25T05:58:55;102915.50;;;1.31;76.76
71344;BME280;59146;43.850;25.948;2023-01-25T06:01:21;102849.84;;;1.03;75.33
71344;BME280;59146;43.850;25.948;2023-01-25T06:03:47;102893.59;;;1.02;76.49
71344;BME280;59146;43.850;25.948;2023-01-25T06:06:12;102864.38;;;0.98;75.32
71344;BME280;59146;43.850;25.948;2023-01-25T06:08:38;102889.41;;;1.10;75.68
71344;BME280;59146;43.850;25.948;2023-01-25T06:11:06;102858.16;;;0.87;76.01
71344;BME280;59146;43.850;25.948;2023-01-25T06:13:31;102858.44;;;1.04;75.26
71344;BME280;59146;43.850;25.948;2023-01-25T06:15:56;102835.88;;;0.88;75.66
71344;BME280;59146;43.850;25.948;2023-01-25T06:18:22;102856.50;;;0.91;75.58
71344;BME280;59146;43.850;25.948;2023-01-25T06:20:51;102935.28;;;1.32;76.22
71344;BME280;59146;43.850;25.948;2023-01-25T06:23:17;102909.84;;;1.01;77.54
71344;BME280;59146;43.850;25.948;2023-01-25T06:25:43;102944.56;;;1.24;76.01
71344;BME280;59146;43.850;25.948;2023-01-25T06:28:08;102891.91;;;1.04;75.83
71344;BME280;59146;43.850;25.948;2023-01-25T06:30:34;102916.91;;;1.11;75.92
71344;BME280;59146;43.850;25.948;2023-01-25T06:33:00;102891.56;;;0.84;75.59
71344;BME280;59146;43.850;25.948;2023-01-25T06:35:26;102921.22;;;1.13;75.55
71344;BME280;59146;43.850;25.948;2023-01-25T06:37:56;102792.88;;;0.30;74.65
71344;BME280;59146;43.850;25.948;2023-01-25T06:40:22;102922.97;;;1.16;74.40
71344;BME280;59146;43.850;25.948;2023-01-25T06:42:48;102869.16;;;0.77;74.91
71344;BME280;59146;43.850;25.948;2023-01-25T06:45:13;102913.31;;;1.03;74.94
71344;BME280;59146;43.850;25.948;2023-01-25T06:47:39;102803.34;;;0.39;76.06
71344;BME280;59146;43.850;25.948;2023-01-25T06:50:05;102889.13;;;0.92;75.07
71344;BME280;59146;43.850;25.948;2023-01-25T06:52:31;102818.31;;;0.62;74.42
71344;BME280;59146;43.850;25.948;2023-01-25T06:55:03;102868.44;;;0.86;74.56
71344;BME280;59146;43.850;25.948;2023-01-25T06:57:29;102879.03;;;1.04;73.69
71344;BME280;59146;43.850;25.948;2023-01-25T06:59:54;102880.72;;;1.02;73.63
71344;BME280;59146;43.850;25.948;2023-01-25T07:02:20;102934.22;;;1.21;72.29
71344;BME280;59146;43.850;25.948;2023-01-25T07:04:45;102870.22;;;0.90;71.15
71344;BME280;59146;43.850;25.948;2023-01-25T07:07:11;102854.88;;;0.96;72.68
71344;BME280;59146;43.850;25.948;2023-01-25T07:09:36;102807.84;;;0.52;73.17
71344;BME280;59146;43.850;25.948;2023-01-25T07:12:01;102877.97;;;0.93;74.10
71344;BME280;59146;43.850;25.948;2023-01-25T07:14:29;102947.28;;;1.33;74.65
71344;BME280;59146;43.850;25.948;2023-01-25T07:16:55;102924.84;;;1.26;74.48
71344;BME280;59146;43.850;25.948;2023-01-25T07:19:21;102897.13;;;1.08;73.64
71344;BME280;59146;43.850;25.948;2023-01-25T07:21:46;102891.91;;;1.04;72.50
71344;BME280;59146;43.850;25.948;2023-01-25T07:24:14;102946.56;;;1.41;72.52
71344;BME280;59146;43.850;25.948;2023-01-25T07:26:39;102959.53;;;1.47;72.75
71344;BME280;59146;43.850;25.948;2023-01-25T07:29:05;102798.59;;;0.63;74.11
71344;BME280;59146;43.850;25.948;2023-01-25T07:31:30;102896.34;;;1.14;73.88
71344;BME280;59146;43.850;25.948;2023-01-25T07:33:57;102955.34;;;1.54;71.18
71344;BME280;59146;43.850;25.948;2023-01-25T07:36:23;102905.09;;;1.25;73.17
71344;BME280;59146;43.850;25.948;2023-01-25T07:38:52;102945.09;;;1.57;73.52
71344;BME280;59146;43.850;25.948;2023-01-25T07:41:19;102920.66;;;1.31;69.64
71344;BME280;59146;43.850;25.948;2023-01-25T07:43:44;102965.66;;;1.54;69.57
71344;BME280;59146;43.850;25.948;2023-01-25T07:46:12;102896.25;;;1.08;71.43
71344;BME280;59146;43.850;25.948;2023-01-25T07:48:45;102927.84;;;1.53;72.67
71344;BME280;59146;43.850;25.948;2023-01-25T07:51:11;102951.16;;;1.59;72.98
71344;BME280;59146;43.850;25.948;2023-01-25T07:53:40;102946.69;;;1.49;70.16
71344;BME280;59146;43.850;25.948;2023-01-25T07:56:07;102944.34;;;1.64;70.12
71344;BME280;59146;43.850;25.948;2023-01-25T07:58:33;102933.06;;;1.57;69.09
71344;BME280;59146;43.850;25.948;2023-01-25T08:01:09;102900.75;;;1.19;69.28
71344;BME280;59146;43.850;25.948;2023-01-25T08:03:35;102936.03;;;1.28;69.24
71344;BME280;59146;43.850;25.948;2023-01-25T08:06:01;102886.03;;;1.11;69.75
71344;BME280;59146;43.850;25.948;2023-01-25T08:08:33;102910.25;;;1.25;69.46
71344;BME280;59146;43.850;25.948;2023-01-25T08:11:12;102929.53;;;1.51;69.21
71344;BME280;59146;43.850;25.948;2023-01-25T08:13:39;102884.19;;;1.04;68.47
71344;BME280;59146;43.850;25.948;2023-01-25T08:16:05;102934.38;;;1.30;68.64
71344;BME280;59146;43.850;25.948;2023-01-25T08:18:31;102901.56;;;1.17;68.88
71344;BME280;59146;43.850;25.948;2023-01-25T08:20:57;102864.22;;;0.89;68.92
71344;BME280;59146;43.850;25.948;2023-01-25T08:23:23;102918.78;;;1.21;68.89
71344;BME280;59146;43.850;25.948;2023-01-25T08:25:49;102888.75;;;1.21;67.92
71344;BME280;59146;43.850;25.948;2023-01-25T08:28:14;102954.78;;;1.72;66.84
71344;BME280;59146;43.850;25.948;2023-01-25T08:30:40;102880.56;;;1.48;66.31
71344;BME280;59146;43.850;25.948;2023-01-25T08:33:05;102936.81;;;1.79;66.94
71344;BME280;59146;43.850;25.948;2023-01-25T08:35:30;102893.78;;;1.72;66.80
71344;BME280;59146;43.850;25.948;2023-01-25T08:37:56;102943.38;;;2.20;65.27
71344;BME280;59146;43.850;25.948;2023-01-25T08:40:21;102899.13;;;1.84;65.36
71344;BME280;59146;43.850;25.948;2023-01-25T08:42:47;102894.84;;;1.88;65.65
71344;BME280;59146;43.850;25.948;2023-01-25T08:45:12;102880.22;;;1.85;65.14
71344;BME280;59146;43.850;25.948;2023-01-25T08:47:38;102881.28;;;2.02;63.93
71344;BME280;59146;43.850;25.948;2023-01-25T08:50:03;102914.38;;;2.38;64.44
71344;BME280;59146;43.850;25.948;2023-01-25T08:52:29;102913.56;;;2.43;63.54
71344;BME280;59146;43.850;25.948;2023-01-25T08:54:54;102941.63;;;2.16;63.92
71344;BME280;59146;43.850;25.948;2023-01-25T08:57:20;102905.16;;;1.88;64.89
71344;BME280;59146;43.850;25.948;2023-01-25T08:59:45;102929.31;;;1.94;64.78
71344;BME280;59146;43.850;25.948;2023-01-25T09:02:12;102854.84;;;1.51;64.92
71344;BME280;59146;43.850;25.948;2023-01-25T09:04:37;102904.06;;;1.69;65.52
71344;BME280;59146;43.850;25.948;2023-01-25T09:07:03;102873.97;;;1.68;65.69
71344;BME280;59146;43.850;25.948;2023-01-25T09:09:30;102897.38;;;1.83;65.50
71344;BME280;59146;43.850;25.948;2023-01-25T09:11:55;102927.69;;;2.04;65.76
71344;BME280;59146;43.850;25.948;2023-01-25T09:14:21;102898.97;;;1.75;65.72
71344;BME280;59146;43.850;25.948;2023-01-25T09:16:46;102840.09;;;1.38;65.44
71344;BME280;59146;43.850;25.948;2023-01-25T09:19:12;102847.75;;;1.35;65.32
71344;BME280;59146;43.850;25.948;2023-01-25T09:21:39;102920.28;;;1.63;66.25
71344;BME280;59146;43.850;25.948;2023-01-25T09:24:05;102883.22;;;1.54;66.13
71344;BME280;59146;43.850;25.948;2023-01-25T09:26:31;102882.66;;;1.76;65.70
71344;BME280;59146;43.850;25.948;2023-01-25T09:28:56;102801.00;;;1.06;65.39
71344;BME280;59146;43.850;25.948;2023-01-25T09:31:22;102872.19;;;1.64;65.68
71344;BME280;59146;43.850;25.948;2023-01-25T09:33:49;102906.66;;;1.72;66.29
71344;BME280;59146;43.850;25.948;2023-01-25T09:36:14;102820.31;;;1.35;65.94
71344;BME280;59146;43.850;25.948;2023-01-25T09:38:40;102852.06;;;1.36;66.53
71344;BME280;59146;43.850;25.948;2023-01-25T09:41:21;102892.13;;;1.76;66.73
71344;BME280;59146;43.850;25.948;2023-01-25T09:46:45;102794.75;;;1.52;65.51
71344;BME280;59146;43.850;25.948;2023-01-25T09:52:33;102819.88;;;1.68;64.76
71344;BME280;59146;43.850;25.948;2023-01-25T09:55:14;102799.84;;;1.46;65.30
71344;BME280;59146;43.850;25.948;2023-01-25T09:57:43;102716.66;;;0.89;65.19
71344;BME280;59146;43.850;25.948;2023-01-25T10:05:30;102748.06;;;1.23;64.95
71344;BME280;59146;43.850;25.948;2023-01-25T10:10:40;102857.28;;;2.06;65.23
71344;BME280;59146;43.850;25.948;2023-01-25T10:13:15;102854.00;;;2.19;64.96
71344;BME280;59146;43.850;25.948;2023-01-25T10:16:11;102829.03;;;2.18;65.04
71344;BME280;59146;43.850;25.948;2023-01-25T10:19:01;102855.00;;;2.33;64.38
71344;BME280;59146;43.850;25.948;2023-01-25T10:21:34;102832.38;;;2.10;64.87
71344;BME280;59146;43.850;25.948;2023-01-25T10:26:47;102815.16;;;2.04;65.31
71344;BME280;59146;43.850;25.948;2023-01-25T10:29:19;102847.91;;;2.14;65.35
71344;BME280;59146;43.850;25.948;2023-01-25T10:31:53;102813.34;;;1.97;65.25
71344;BME280;59146;43.850;25.948;2023-01-25T10:34:27;102764.25;;;1.87;65.33
71344;BME280;59146;43.850;25.948;2023-01-25T10:36:56;102765.97;;;1.86;64.80
71344;BME280;59146;43.850;25.948;2023-01-25T10:39:23;102761.66;;;1.82;65.00
71344;BME280;59146;43.850;25.948;2023-01-25T10:42:09;102772.00;;;1.88;64.63
71344;BME280;59146;43.850;25.948;2023-01-25T10:44:36;102796.41;;;2.20;64.59
71344;BME280;59146;43.850;25.948;2023-01-25T10:47:14;102742.97;;;2.06;64.71
71344;BME280;59146;43.850;25.948;2023-01-25T10:49:54;102660.38;;;1.94;63.32
71344;BME280;59146;43.850;25.948;2023-01-25T10:52:26;102773.56;;;2.64;63.29
71344;BME280;59146;43.850;25.948;2023-01-25T10:55:16;102736.59;;;2.67;63.46
71344;BME280;59146;43.850;25.948;2023-01-25T10:57:49;102767.91;;;3.12;62.29
71344;BME280;59146;43.850;25.948;2023-01-25T11:00:36;102771.41;;;3.26;61.43
71344;BME280;59146;43.850;25.948;2023-01-25T11:03:03;102772.97;;;2.98;62.36
71344;BME280;59146;43.850;25.948;2023-01-25T11:05:38;102746.38;;;3.14;62.47
71344;BME280;59146;43.850;25.948;2023-01-25T11:10:55;102739.66;;;3.51;61.14
71344;BME280;59146;43.850;25.948;2023-01-25T11:13:28;102742.06;;;3.15;61.63
71344;BME280;59146;43.850;25.948;2023-01-25T11:18:33;102668.38;;;2.24;64.14
71344;BME280;59146;43.850;25.948;2023-01-25T11:21:05;102660.84;;;2.51;63.78
71344;BME280;59146;43.850;25.948;2023-01-25T11:23:31;102716.91;;;2.79;64.72
71344;BME280;59146;43.850;25.948;2023-01-25T11:28:37;102654.78;;;2.48;63.95
71344;BME280;59146;43.850;25.948;2023-01-25T11:31:02;102696.25;;;2.78;63.49
71344;BME280;59146;43.850;25.948;2023-01-25T11:33:28;102676.38;;;2.65;63.31
71344;BME280;59146;43.850;25.948;2023-01-25T11:38:22;102633.03;;;2.14;64.62
71344;BME280;59146;43.850;25.948;2023-01-25T11:51:34;102692.13;;;3.07;62.79
71344;BME280;59146;43.850;25.948;2023-01-25T11:59:57;102654.88;;;2.63;63.81
71344;BME280;59146;43.850;25.948;2023-01-25T12:19:21;102676.50;;;2.84;62.25
71344;BME280;59146;43.850;25.948;2023-01-25T12:22:33;102679.81;;;2.61;62.92
71344;BME280;59146;43.850;25.948;2023-01-25T12:25:06;102580.56;;;2.03;63.95
71344;BME280;59146;43.850;25.948;2023-01-25T12:28:26;102672.09;;;2.64;64.62
71344;BME280;59146;43.850;25.948;2023-01-25T12:33:24;102598.66;;;2.12;63.90
71344;BME280;59146;43.850;25.948;2023-01-25T12:39:12;102667.75;;;2.57;64.12
71344;BME280;59146;43.850;25.948;2023-01-25T12:41:39;102664.25;;;2.49;63.20
71344;BME280;59146;43.850;25.948;2023-01-25T12:44:18;102586.50;;;1.97;63.37
71344;BME280;59146;43.850;25.948;2023-01-25T12:47:00;102654.72;;;2.40;63.05
71344;BME280;59146;43.850;25.948;2023-01-25T12:54:48;102609.88;;;2.18;63.84
71344;BME280;59146;43.850;25.948;2023-01-25T13:03:00;102567.63;;;1.98;63.69
71344;BME280;59146;43.850;25.948;2023-01-25T13:05:50;102653.00;;;2.36;63.93
71344;BME280;59146;43.850;25.948;2023-01-25T13:08:30;102588.25;;;2.01;64.73
71344;BME280;59146;43.850;25.948;2023-01-25T13:11:12;102598.72;;;2.22;63.50
71344;BME280;59146;43.850;25.948;2023-01-25T13:13:40;102653.09;;;2.56;63.45
71344;BME280;59146;43.850;25.948;2023-01-25T13:16:35;102665.06;;;2.38;63.43
71344;BME280;59146;43.850;25.948;2023-01-25T13:19:02;102662.47;;;2.41;62.42
71344;BME280;59146;43.850;25.948;2023-01-25T13:21:42;102633.97;;;2.22;62.66
71344;BME280;59146;43.850;25.948;2023-01-25T13:26:45;102596.03;;;2.04;62.88
71344;BME280;59146;43.850;25.948;2023-01-25T13:31:54;102609.84;;;2.11;63.09
71344;BME280;59146;43.850;25.948;2023-01-25T13:37:28;102626.25;;;2.26;62.69
71344;BME280;59146;43.850;25.948;2023-01-25T13:40:05;102479.53;;;1.35;62.78
71344;BME280;59146;43.850;25.948;2023-01-25T13:43:19;102649.53;;;2.32;62.94
71344;BME280;59146;43.850;25.948;2023-01-25T13:45:48;102593.41;;;2.01;63.05
71344;BME280;59146;43.850;25.948;2023-01-25T13:48:17;102621.00;;;2.11;63.51
71344;BME280;59146;43.850;25.948;2023-01-25T13:50:58;102627.97;;;2.21;63.88
71344;BME280;59146;43.850;25.948;2023-01-25T13:53:26;102636.75;;;2.49;63.02
71344;BME280;59146;43.850;25.948;2023-01-25T13:55:57;102444.31;;;1.31;63.23
71344;BME280;59146;43.850;25.948;2023-01-25T14:03:20;102632.47;;;2.51;63.34
71344;BME280;59146;43.850;25.948;2023-01-25T14:05:51;102543.44;;;1.80;64.07
71344;BME280;59146;43.850;25.948;2023-01-25T14:08:18;102639.22;;;2.37;64.49
71344;BME280;59146;43.850;25.948;2023-01-25T14:10:44;102594.44;;;2.21;63.99
71344;BME280;59146;43.850;25.948;2023-01-25T14:13:13;102513.44;;;1.91;64.23
71344;BME280;59146;43.850;25.948;2023-01-25T14:15:39;102476.25;;;1.54;63.79
71344;BME280;59146;43.850;25.948;2023-01-25T14:18:12;102635.94;;;2.62;63.84
71344;BME280;59146;43.850;25.948;2023-01-25T14:20:39;102600.66;;;2.55;63.25
71344;BME280;59146;43.850;25.948;2023-01-25T14:23:27;102569.66;;;2.48;62.91
71344;BME280;59146;43.850;25.948;2023-01-25T14:25:55;102624.84;;;2.77;62.70
71344;BME280;59146;43.850;25.948;2023-01-25T14:28:24;102616.97;;;2.56;63.21
71344;BME280;59146;43.850;25.948;2023-01-25T14:30:51;102608.28;;;2.32;63.85
71344;BME280;59146;43.850;25.948;2023-01-25T14:33:30;102605.69;;;2.35;64.50
71344;BME280;59146;43.850;25.948;2023-01-25T14:36:13;102594.28;;;2.03;64.44
71344;BME280;59146;43.850;25.948;2023-01-25T14:38:43;102614.16;;;2.16;64.28